createdAt,value
2022-11-06T00:00:33.949Z,969.36
2022-11-06T00:01:34.015Z,969.39
2022-11-06T00:02:33.995Z,969.37
2022-11-06T00:03:33.916Z,969.42
2022-11-06T00:04:33.912Z,969.46
2022-11-06T00:05:33.906Z,969.43
2022-11-06T00:06:33.890Z,969.39
2022-11-06T00:07:33.893Z,969.41
2022-11-06T00:08:33.880Z,969.43
2022-11-06T00:09:33.839Z,969.47
2022-11-06T00:10:33.837Z,969.46
2022-11-06T00:11:33.844Z,969.44
2022-11-06T00:12:33.825Z,969.46
2022-11-06T00:13:33.859Z,969.53
2022-11-06T00:14:33.806Z,969.52
2022-11-06T00:15:33.778Z,969.46
2022-11-06T00:16:33.776Z,969.47
2022-11-06T00:17:33.781Z,969.51
2022-11-06T00:18:33.741Z,969.42
2022-11-06T00:19:33.741Z,969.47
2022-11-06T00:20:33.719Z,969.40
2022-11-06T00:21:33.721Z,969.31
2022-11-06T00:22:33.772Z,969.42
2022-11-06T00:23:33.702Z,969.39
2022-11-06T00:24:33.675Z,969.33
2022-11-06T00:25:33.669Z,969.27
2022-11-06T00:26:33.651Z,969.30
2022-11-06T00:27:33.679Z,969.32
2022-11-06T00:28:33.654Z,969.29
2022-11-06T00:29:33.638Z,969.31
2022-11-06T00:30:33.612Z,969.31
2022-11-06T00:31:33.612Z,969.33
2022-11-06T00:32:33.618Z,969.29
2022-11-06T00:33:33.598Z,969.30
2022-11-06T00:34:33.581Z,969.26
2022-11-06T00:35:33.553Z,969.22
2022-11-06T00:36:33.549Z,969.22
2022-11-06T00:37:33.535Z,969.21
2022-11-06T00:38:33.560Z,969.20
2022-11-06T00:39:33.536Z,969.16
2022-11-06T00:40:33.532Z,969.16
2022-11-06T00:41:33.488Z,969.19
2022-11-06T00:42:33.487Z,969.17
2022-11-06T00:43:33.466Z,969.22
2022-11-06T00:44:33.458Z,969.09
2022-11-06T00:45:33.464Z,969.16
2022-11-06T00:46:33.461Z,969.16
2022-11-06T00:47:33.468Z,969.17
2022-11-06T00:48:33.404Z,969.19
2022-11-06T00:49:33.413Z,969.19
2022-11-06T00:50:33.396Z,969.25
2022-11-06T00:51:33.396Z,969.27
2022-11-06T00:52:33.360Z,969.27
2022-11-06T00:53:33.367Z,969.24
2022-11-06T00:54:33.361Z,969.24
2022-11-06T00:55:33.345Z,969.28
2022-11-06T00:56:33.336Z,969.26
2022-11-06T00:57:33.329Z,969.27
2022-11-06T00:58:33.328Z,969.27
2022-11-06T00:59:33.306Z,969.25
2022-11-06T01:00:33.271Z,969.23
2022-11-06T01:01:33.468Z,969.24
2022-11-06T01:02:33.576Z,969.20
2022-11-06T01:03:33.238Z,969.17
2022-11-06T01:04:33.224Z,969.14
2022-11-06T01:05:33.213Z,969.14
2022-11-06T01:06:33.211Z,969.09
2022-11-06T01:07:33.226Z,969.13
2022-11-06T01:08:33.199Z,969.12
2022-11-06T01:09:33.196Z,969.13
2022-11-06T01:10:33.174Z,969.09
2022-11-06T01:11:52.519Z,969.10
2022-11-06T01:12:34.220Z,969.06
2022-11-06T01:13:33.234Z,969.11
2022-11-06T01:14:33.133Z,969.19
2022-11-06T01:15:33.136Z,969.13
2022-11-06T01:16:33.116Z,969.15
2022-11-06T01:17:33.108Z,969.11
2022-11-06T01:18:33.077Z,969.14
2022-11-06T01:19:33.087Z,969.09
2022-11-06T01:20:33.064Z,969.08
2022-11-06T01:21:33.046Z,969.14
2022-11-06T01:22:33.050Z,969.15
2022-11-06T01:23:33.350Z,969.09
2022-11-06T01:24:33.087Z,969.04
2022-11-06T01:25:33.002Z,968.97
2022-11-06T01:26:39.319Z,968.97
2022-11-06T01:27:34.011Z,968.89
2022-11-06T01:28:32.990Z,968.91
2022-11-06T01:29:32.981Z,968.89
2022-11-06T01:30:32.956Z,968.85
2022-11-06T01:31:32.958Z,968.88
2022-11-06T01:32:32.916Z,968.83
2022-11-06T01:33:32.966Z,968.87
2022-11-06T01:34:32.929Z,968.80
2022-11-06T01:35:32.888Z,968.85
2022-11-06T01:36:32.899Z,968.85
2022-11-06T01:37:32.902Z,968.79
2022-11-06T01:38:32.853Z,968.87
2022-11-06T01:39:32.848Z,968.87
2022-11-06T01:40:32.831Z,968.83
2022-11-06T01:41:32.827Z,968.83
2022-11-06T01:42:32.945Z,968.86
2022-11-06T01:43:32.788Z,968.86
2022-11-06T01:44:32.795Z,968.80
2022-11-06T01:45:32.780Z,968.89
2022-11-06T01:46:32.771Z,968.85
2022-11-06T01:47:32.757Z,968.83
2022-11-06T01:48:32.762Z,968.80
2022-11-06T01:49:32.735Z,968.87
2022-11-06T01:50:32.711Z,968.91
2022-11-06T01:51:32.700Z,968.97
2022-11-06T01:52:32.717Z,968.92
2022-11-06T01:53:32.693Z,968.94
2022-11-06T01:54:32.688Z,968.95
2022-11-06T01:55:32.674Z,968.85
2022-11-06T01:56:32.664Z,968.89
2022-11-06T01:57:32.639Z,968.86
2022-11-06T01:58:32.644Z,968.88
2022-11-06T01:59:32.634Z,968.84
2022-11-06T02:00:32.703Z,968.79
2022-11-06T02:01:32.739Z,968.86
2022-11-06T02:02:32.774Z,968.76
2022-11-06T02:03:32.589Z,968.75
2022-11-06T02:04:32.575Z,968.78
2022-11-06T02:05:32.597Z,968.82
2022-11-06T02:06:32.581Z,968.85
2022-11-06T02:07:32.525Z,968.81
2022-11-06T02:08:32.522Z,968.81
2022-11-06T02:09:32.538Z,968.81
2022-11-06T02:10:32.508Z,968.82
2022-11-06T02:11:32.508Z,968.79
2022-11-06T02:12:32.473Z,968.77
2022-11-06T02:13:32.452Z,968.82
2022-11-06T02:14:32.468Z,968.77
2022-11-06T02:15:32.454Z,968.79
2022-11-06T02:16:32.443Z,968.69
2022-11-06T02:17:32.411Z,968.75
2022-11-06T02:18:32.417Z,968.68
2022-11-06T02:19:32.386Z,968.71
2022-11-06T02:20:32.398Z,968.76
2022-11-06T02:21:32.372Z,968.70
2022-11-06T02:22:32.378Z,968.71
2022-11-06T02:23:32.346Z,968.72
2022-11-06T02:24:32.350Z,968.69
2022-11-06T02:25:32.365Z,968.72
2022-11-06T02:26:32.311Z,968.71
2022-11-06T02:27:32.311Z,968.67
2022-11-06T02:28:32.321Z,968.68
2022-11-06T02:29:50.512Z,968.71
2022-11-06T02:30:33.310Z,968.71
2022-11-06T02:31:32.283Z,968.69
2022-11-06T02:32:32.256Z,968.74
2022-11-06T02:33:32.242Z,968.72
2022-11-06T02:34:32.220Z,968.71
2022-11-06T02:35:32.224Z,968.68
2022-11-06T02:36:32.194Z,968.73
2022-11-06T02:37:32.206Z,968.72
2022-11-06T02:38:32.197Z,968.69
2022-11-06T02:39:32.179Z,968.71
2022-11-06T02:40:32.195Z,968.68
2022-11-06T02:41:32.139Z,968.70
2022-11-06T02:42:32.130Z,968.65
2022-11-06T02:43:32.161Z,968.65
2022-11-06T02:44:32.134Z,968.64
2022-11-06T02:45:32.246Z,968.64
2022-11-06T02:46:32.081Z,968.63
2022-11-06T02:47:32.072Z,968.64
2022-11-06T02:48:32.099Z,968.62
2022-11-06T02:49:32.065Z,968.63
2022-11-06T02:50:32.072Z,968.60
2022-11-06T02:51:32.048Z,968.57
2022-11-06T02:52:32.013Z,968.59
2022-11-06T02:53:32.018Z,968.63
2022-11-06T02:54:32.020Z,968.62
2022-11-06T02:55:32.020Z,968.60
2022-11-06T02:56:31.994Z,968.59
2022-11-06T02:57:31.961Z,968.57
2022-11-06T02:58:31.947Z,968.61
2022-11-06T02:59:31.959Z,968.59
2022-11-06T03:00:31.970Z,968.58
2022-11-06T03:01:32.144Z,968.58
2022-11-06T03:02:32.116Z,968.62
2022-11-06T03:03:31.893Z,968.58
2022-11-06T03:04:31.880Z,968.55
2022-11-06T03:05:31.886Z,968.61
2022-11-06T03:06:31.903Z,968.58
2022-11-06T03:07:31.882Z,968.63
2022-11-06T03:08:31.840Z,968.64
2022-11-06T03:09:31.827Z,968.58
2022-11-06T03:10:31.810Z,968.63
2022-11-06T03:11:31.850Z,968.60
2022-11-06T03:12:31.803Z,968.58
2022-11-06T03:13:31.805Z,968.62
2022-11-06T03:14:31.769Z,968.60
2022-11-06T03:15:31.773Z,968.58
2022-11-06T03:16:31.747Z,968.54
2022-11-06T03:17:32.365Z,968.56
2022-11-06T03:18:31.752Z,968.53
2022-11-06T03:19:31.713Z,968.58
2022-11-06T03:20:31.699Z,968.57
2022-11-06T03:21:31.689Z,968.57
2022-11-06T03:22:31.685Z,968.58
2022-11-06T03:23:31.702Z,968.60
2022-11-06T03:24:31.666Z,968.64
2022-11-06T03:25:31.676Z,968.62
2022-11-06T03:26:31.634Z,968.62
2022-11-06T03:27:31.625Z,968.58
2022-11-06T03:28:31.635Z,968.59
2022-11-06T03:29:31.635Z,968.58
2022-11-06T03:30:31.608Z,968.57
2022-11-06T03:31:31.580Z,968.53
2022-11-06T03:32:31.587Z,968.54
2022-11-06T03:33:31.893Z,968.61
2022-11-06T03:34:31.581Z,968.63
2022-11-06T03:35:31.551Z,968.65
2022-11-06T03:36:31.533Z,968.72
2022-11-06T03:37:31.513Z,968.69
2022-11-06T03:38:31.500Z,968.69
2022-11-06T03:39:31.535Z,968.62
2022-11-06T03:40:31.505Z,968.62
2022-11-06T03:41:31.490Z,968.64
2022-11-06T03:43:46.233Z,968.67
2022-11-06T03:44:46.176Z,968.57
2022-11-06T03:45:46.180Z,968.61
2022-11-06T03:46:46.187Z,968.51
2022-11-06T03:47:46.164Z,968.54
2022-11-06T03:48:46.194Z,968.57
2022-11-06T03:49:46.129Z,968.56
2022-11-06T03:50:46.408Z,968.54
2022-11-06T03:51:46.107Z,968.51
2022-11-06T03:52:46.117Z,968.52
2022-11-06T03:53:46.118Z,968.50
2022-11-06T03:54:46.071Z,968.51
2022-11-06T03:55:46.058Z,968.48
2022-11-06T03:56:46.383Z,968.52
2022-11-06T03:57:46.045Z,968.47
2022-11-06T03:58:46.096Z,968.46
2022-11-06T03:59:46.034Z,968.51
2022-11-06T04:00:46.000Z,968.56
2022-11-06T04:01:46.201Z,968.51
2022-11-06T04:02:46.174Z,968.54
2022-11-06T04:03:45.999Z,968.53
2022-11-06T04:04:46.006Z,968.47
2022-11-06T04:05:45.974Z,968.50
2022-11-06T04:06:45.938Z,968.47
2022-11-06T04:07:45.920Z,968.48
2022-11-06T04:08:45.927Z,968.47
2022-11-06T04:09:45.936Z,968.46
2022-11-06T04:10:45.929Z,968.52
2022-11-06T04:11:45.912Z,968.47
2022-11-06T04:12:45.877Z,968.43
2022-11-06T04:13:45.956Z,968.44
2022-11-06T04:14:45.869Z,968.45
2022-11-06T04:15:45.861Z,968.41
2022-11-06T04:16:45.875Z,968.39
2022-11-06T04:17:45.810Z,968.41
2022-11-06T04:18:45.812Z,968.45
2022-11-06T04:19:45.895Z,968.41
2022-11-06T04:20:45.827Z,968.45
2022-11-06T04:21:45.776Z,968.40
2022-11-06T04:22:45.810Z,968.43
2022-11-06T04:23:45.745Z,968.47
2022-11-06T04:24:45.919Z,968.41
2022-11-06T04:25:45.737Z,968.44
2022-11-06T04:26:45.728Z,968.41
2022-11-06T04:27:45.741Z,968.39
2022-11-06T04:28:45.745Z,968.38
2022-11-06T04:29:45.690Z,968.38
2022-11-06T04:30:45.670Z,968.38
2022-11-06T04:31:45.704Z,968.38
2022-11-06T04:32:45.669Z,968.44
2022-11-06T04:33:45.675Z,968.49
2022-11-06T04:34:45.688Z,968.46
2022-11-06T04:35:45.640Z,968.43
2022-11-06T04:36:45.625Z,968.43
2022-11-06T04:37:45.601Z,968.38
2022-11-06T04:38:45.604Z,968.37
2022-11-06T04:39:45.616Z,968.35
2022-11-06T04:40:45.640Z,968.30
2022-11-06T04:41:45.560Z,968.22
2022-11-06T04:42:45.942Z,968.15
2022-11-06T04:43:45.537Z,968.15
2022-11-06T04:44:45.544Z,968.11
2022-11-06T04:45:45.555Z,968.06
2022-11-06T04:46:45.560Z,968.12
2022-11-06T04:47:45.482Z,968.08
2022-11-06T04:48:45.486Z,968.07
2022-11-06T04:49:45.479Z,968.05
2022-11-06T04:50:45.484Z,968.07
2022-11-06T04:51:45.488Z,968.08
2022-11-06T04:52:45.502Z,968.11
2022-11-06T04:53:45.432Z,968.11
2022-11-06T04:54:45.443Z,968.03
2022-11-06T04:55:45.427Z,968.08
2022-11-06T04:56:46.570Z,968.10
2022-11-06T04:57:45.435Z,968.12
2022-11-06T04:58:45.370Z,968.09
2022-11-06T04:59:45.377Z,968.12
2022-11-06T05:00:45.421Z,968.14
2022-11-06T05:01:45.562Z,968.05
2022-11-06T05:02:45.358Z,968.09
2022-11-06T05:03:45.379Z,968.04
2022-11-06T05:04:45.307Z,968.07
2022-11-06T05:05:45.482Z,968.04
2022-11-06T05:06:45.295Z,968.09
2022-11-06T05:07:45.305Z,968.08
2022-11-06T05:08:45.258Z,968.05
2022-11-06T05:09:45.252Z,968.05
2022-11-06T05:10:45.252Z,968.07
2022-11-06T05:11:45.258Z,968.04
2022-11-06T05:12:45.234Z,968.11
2022-11-06T05:13:45.203Z,968.02
2022-11-06T05:14:45.252Z,968.02
2022-11-06T05:15:45.171Z,968.03
2022-11-06T05:16:45.163Z,967.99
2022-11-06T05:17:45.170Z,967.95
2022-11-06T05:18:45.169Z,967.95
2022-11-06T05:19:45.135Z,967.96
2022-11-06T05:20:45.110Z,967.94
2022-11-06T05:21:53.226Z,967.94
2022-11-06T05:22:45.108Z,967.94
2022-11-06T05:23:45.084Z,967.92
2022-11-06T05:24:45.171Z,967.89
2022-11-06T05:25:45.061Z,967.87
2022-11-06T05:26:45.055Z,967.90
2022-11-06T05:27:45.071Z,967.87
2022-11-06T05:28:45.051Z,967.91
2022-11-06T05:29:45.040Z,967.89
2022-11-06T05:30:45.010Z,967.90
2022-11-06T05:31:44.987Z,967.90
2022-11-06T05:32:44.993Z,967.88
2022-11-06T05:33:44.999Z,967.85
2022-11-06T05:34:44.964Z,967.81
2022-11-06T05:35:44.973Z,967.81
2022-11-06T05:36:44.968Z,967.75
2022-11-06T05:37:44.928Z,967.76
2022-11-06T05:38:44.915Z,967.75
2022-11-06T05:39:44.941Z,967.73
2022-11-06T05:40:44.937Z,967.81
2022-11-06T05:41:44.899Z,967.80
2022-11-06T05:42:44.866Z,967.79
2022-11-06T05:43:44.853Z,967.80
2022-11-06T05:44:44.855Z,967.83
2022-11-06T05:45:44.856Z,967.83
2022-11-06T05:46:49.647Z,967.81
2022-11-06T05:47:45.823Z,967.79
2022-11-06T05:48:44.802Z,967.81
2022-11-06T05:49:44.787Z,967.81
2022-11-06T05:50:44.801Z,967.81
2022-11-06T05:51:44.794Z,967.77
2022-11-06T05:52:44.775Z,967.86
2022-11-06T05:53:44.748Z,967.82
2022-11-06T05:54:44.745Z,967.86
2022-11-06T05:55:44.722Z,967.83
2022-11-06T05:56:44.732Z,967.91
2022-11-06T05:57:44.735Z,967.90
2022-11-06T05:58:44.735Z,967.89
2022-11-06T05:59:44.697Z,967.89
2022-11-06T06:00:44.681Z,967.85
2022-11-06T06:01:44.962Z,967.80
2022-11-06T06:02:44.804Z,967.80
2022-11-06T06:03:44.674Z,967.74
2022-11-06T06:04:44.647Z,967.72
2022-11-06T06:05:44.621Z,967.80
2022-11-06T06:06:44.676Z,967.76
2022-11-06T06:07:44.601Z,967.71
2022-11-06T06:08:44.597Z,967.71
2022-11-06T06:09:44.607Z,967.72
2022-11-06T06:10:44.586Z,967.66
2022-11-06T06:11:44.552Z,967.64
2022-11-06T06:12:44.552Z,967.60
2022-11-06T06:13:44.533Z,967.61
2022-11-06T06:14:47.891Z,967.62
2022-11-06T06:15:45.520Z,967.62
2022-11-06T06:16:44.524Z,967.60
2022-11-06T06:17:44.474Z,967.61
2022-11-06T06:18:44.477Z,967.60
2022-11-06T06:19:44.486Z,967.58
2022-11-06T06:20:44.457Z,967.58
2022-11-06T06:21:44.455Z,967.57
2022-11-06T06:22:44.430Z,967.57
2022-11-06T06:23:44.409Z,967.59
2022-11-06T06:24:44.514Z,967.54
2022-11-06T06:25:44.410Z,967.57
2022-11-06T06:26:44.397Z,967.62
2022-11-06T06:27:44.402Z,967.52
2022-11-06T06:28:44.377Z,967.50
2022-11-06T06:29:44.363Z,967.46
2022-11-06T06:30:44.350Z,967.48
2022-11-06T06:31:44.376Z,967.48
2022-11-06T06:32:44.343Z,967.51
2022-11-06T06:33:44.334Z,967.49
2022-11-06T06:34:44.303Z,967.52
2022-11-06T06:35:44.280Z,967.48
2022-11-06T06:36:44.280Z,967.42
2022-11-06T06:37:44.288Z,967.42
2022-11-06T06:38:44.282Z,967.48
2022-11-06T06:39:44.231Z,967.48
2022-11-06T06:40:44.301Z,967.44
2022-11-06T06:41:44.225Z,967.46
2022-11-06T06:42:44.222Z,967.42
2022-11-06T06:43:44.191Z,967.43
2022-11-06T06:44:44.255Z,967.39
2022-11-06T06:45:44.165Z,967.41
2022-11-06T06:46:44.187Z,967.42
2022-11-06T06:47:44.159Z,967.42
2022-11-06T06:48:44.163Z,967.43
2022-11-06T06:49:44.141Z,967.39
2022-11-06T06:50:44.145Z,967.39
2022-11-06T06:51:44.099Z,967.42
2022-11-06T06:52:44.097Z,967.41
2022-11-06T06:53:44.089Z,967.45
2022-11-06T06:54:44.084Z,967.36
2022-11-06T06:55:44.092Z,967.40
2022-11-06T06:56:44.045Z,967.40
2022-11-06T06:57:44.032Z,967.40
2022-11-06T06:58:44.043Z,967.39
2022-11-06T06:59:44.044Z,967.46
2022-11-06T07:00:44.175Z,967.47
2022-11-06T07:01:44.201Z,967.53
2022-11-06T07:02:43.987Z,967.48
2022-11-06T07:03:43.981Z,967.48
2022-11-06T07:04:43.985Z,967.48
2022-11-06T07:05:43.977Z,967.52
2022-11-06T07:06:43.947Z,967.45
2022-11-06T07:07:43.954Z,967.42
2022-11-06T07:08:43.927Z,967.43
2022-11-06T07:09:43.924Z,967.48
2022-11-06T07:10:43.895Z,967.57
2022-11-06T07:11:43.906Z,967.55
2022-11-06T07:12:43.884Z,967.57
2022-11-06T07:13:43.860Z,967.58
2022-11-06T07:14:43.844Z,967.64
2022-11-06T07:15:43.840Z,967.63
2022-11-06T07:16:43.860Z,967.66
2022-11-06T07:17:43.831Z,967.66
2022-11-06T07:18:43.855Z,967.67
2022-11-06T07:19:43.794Z,967.73
2022-11-06T07:20:43.789Z,967.77
2022-11-06T07:21:43.776Z,967.75
2022-11-06T07:22:43.768Z,967.77
2022-11-06T07:23:43.743Z,967.77
2022-11-06T07:24:43.790Z,967.78
2022-11-06T07:25:43.733Z,967.76
2022-11-06T07:26:43.709Z,967.77
2022-11-06T07:27:43.712Z,967.72
2022-11-06T07:28:43.706Z,967.73
2022-11-06T07:29:43.708Z,967.75
2022-11-06T07:30:43.674Z,967.75
2022-11-06T07:31:43.655Z,967.79
2022-11-06T07:32:43.673Z,967.82
2022-11-06T07:33:43.637Z,967.83
2022-11-06T07:34:43.639Z,967.89
2022-11-06T07:35:43.634Z,967.89
2022-11-06T07:36:43.603Z,967.88
2022-11-06T07:37:43.614Z,967.91
2022-11-06T07:38:43.594Z,967.86
2022-11-06T07:39:43.575Z,967.86
2022-11-06T07:40:43.587Z,967.83
2022-11-06T07:41:43.582Z,967.84
2022-11-06T07:42:43.941Z,967.86
2022-11-06T07:43:43.598Z,967.82
2022-11-06T07:44:43.528Z,967.82
2022-11-06T07:45:43.514Z,967.89
2022-11-06T07:46:43.516Z,967.95
2022-11-06T07:47:43.512Z,967.97
2022-11-06T07:48:43.494Z,967.98
2022-11-06T07:49:46.837Z,967.93
2022-11-06T07:50:44.485Z,967.89
2022-11-06T07:51:43.451Z,967.95
2022-11-06T07:52:43.421Z,967.86
2022-11-06T07:53:43.458Z,967.87
2022-11-06T07:54:43.397Z,967.85
2022-11-06T07:55:43.421Z,967.90
2022-11-06T07:56:43.398Z,967.91
2022-11-06T07:57:43.404Z,967.90
2022-11-06T07:58:43.397Z,967.85
2022-11-06T07:59:43.343Z,967.87
2022-11-06T08:00:43.448Z,967.85
2022-11-06T08:01:43.535Z,967.88
2022-11-06T08:02:43.456Z,967.77
2022-11-06T08:03:43.321Z,967.77
2022-11-06T08:04:43.310Z,967.77
2022-11-06T08:05:43.305Z,967.73
2022-11-06T08:06:43.293Z,967.69
2022-11-06T08:07:43.259Z,967.62
2022-11-06T08:08:43.252Z,967.61
2022-11-06T08:09:43.257Z,967.65
2022-11-06T08:10:43.283Z,967.57
2022-11-06T08:11:43.211Z,967.60
2022-11-06T08:12:43.210Z,967.58
2022-11-06T08:13:43.213Z,967.56
2022-11-06T08:14:43.201Z,967.59
2022-11-06T08:15:43.205Z,967.56
2022-11-06T08:16:43.169Z,967.55
2022-11-06T08:17:43.145Z,967.61
2022-11-06T08:18:43.160Z,967.61
2022-11-06T08:19:43.133Z,967.57
2022-11-06T08:20:43.146Z,967.55
2022-11-06T08:21:43.132Z,967.53
2022-11-06T08:22:43.112Z,967.52
2022-11-06T08:23:43.081Z,967.53
2022-11-06T08:24:43.067Z,967.47
2022-11-06T08:25:43.086Z,967.45
2022-11-06T08:26:43.070Z,967.38
2022-11-06T08:27:43.068Z,967.33
2022-11-06T08:28:43.034Z,967.32
2022-11-06T08:29:43.055Z,967.32
2022-11-06T08:30:43.029Z,967.27
2022-11-06T08:31:43.000Z,967.24
2022-11-06T08:32:43.014Z,967.19
2022-11-06T08:33:42.975Z,967.21
2022-11-06T08:34:42.955Z,967.22
2022-11-06T08:35:42.965Z,967.21
2022-11-06T08:36:46.882Z,967.17
2022-11-06T08:37:43.924Z,967.12
2022-11-06T08:38:42.978Z,967.21
2022-11-06T08:39:42.902Z,967.21
2022-11-06T08:40:42.891Z,967.26
2022-11-06T08:41:42.903Z,967.31
2022-11-06T08:42:42.878Z,967.36
2022-11-06T08:43:42.876Z,967.36
2022-11-06T08:44:42.860Z,967.43
2022-11-06T08:45:42.837Z,967.35
2022-11-06T08:46:45.400Z,967.39
2022-11-06T08:47:43.844Z,967.37
2022-11-06T08:48:42.804Z,967.38
2022-11-06T08:49:42.814Z,967.36
2022-11-06T08:50:42.779Z,967.36
2022-11-06T08:51:42.767Z,967.40
2022-11-06T08:52:42.788Z,967.38
2022-11-06T08:53:42.834Z,967.40
2022-11-06T08:54:42.747Z,967.39
2022-11-06T08:55:42.750Z,967.37
2022-11-06T08:56:42.709Z,967.30
2022-11-06T08:57:42.702Z,967.32
2022-11-06T08:58:42.706Z,967.32
2022-11-06T08:59:42.712Z,967.23
2022-11-06T09:00:42.808Z,967.21
2022-11-06T09:01:43.548Z,967.16
2022-11-06T09:02:42.666Z,967.15
2022-11-06T09:03:42.637Z,967.11
2022-11-06T09:04:42.625Z,967.12
2022-11-06T09:05:42.656Z,967.09
2022-11-06T09:06:42.623Z,967.01
2022-11-06T09:07:42.589Z,967.04
2022-11-06T09:08:42.591Z,967.02
2022-11-06T09:09:42.575Z,966.99
2022-11-06T09:10:42.568Z,966.97
2022-11-06T09:11:42.590Z,966.95
2022-11-06T09:12:42.559Z,966.91
2022-11-06T09:13:42.522Z,966.84
2022-11-06T09:14:42.511Z,966.81
2022-11-06T09:15:42.527Z,966.78
2022-11-06T09:16:42.514Z,966.77
2022-11-06T09:17:42.506Z,966.71
2022-11-06T09:18:42.467Z,966.68
2022-11-06T09:19:42.455Z,966.64
2022-11-06T09:20:42.515Z,966.65
2022-11-06T09:21:42.433Z,966.63
2022-11-06T09:22:42.447Z,966.64
2022-11-06T09:23:42.448Z,966.64
2022-11-06T09:25:02.512Z,966.63
2022-11-06T09:25:43.429Z,966.59
2022-11-06T09:26:42.388Z,966.59
2022-11-06T09:27:42.376Z,966.48
2022-11-06T09:28:42.368Z,966.48
2022-11-06T09:29:42.399Z,966.43
2022-11-06T09:30:42.332Z,966.41
2022-11-06T09:31:42.335Z,966.33
2022-11-06T09:32:42.318Z,966.30
2022-11-06T09:33:42.342Z,966.35
2022-11-06T09:34:42.324Z,966.26
2022-11-06T09:35:42.323Z,966.29
2022-11-06T09:36:42.281Z,966.34
2022-11-06T09:37:42.257Z,966.28
2022-11-06T09:38:42.289Z,966.24
2022-11-06T09:39:42.254Z,966.25
2022-11-06T09:40:42.240Z,966.24
2022-11-06T09:41:42.213Z,966.19
2022-11-06T09:42:42.199Z,966.13
2022-11-06T09:44:43.199Z,966.07
2022-11-06T09:45:42.211Z,966.08
2022-11-06T09:46:42.183Z,966.13
2022-11-06T09:47:42.143Z,966.14
2022-11-06T09:48:42.132Z,966.17
2022-11-06T09:49:42.140Z,966.15
2022-11-06T09:50:42.135Z,966.11
2022-11-06T09:51:42.117Z,966.16
2022-11-06T09:52:42.089Z,966.07
2022-11-06T09:53:42.085Z,966.07
2022-11-06T09:54:42.068Z,966.03
2022-11-06T09:55:42.089Z,965.96
2022-11-06T09:56:42.098Z,965.99
2022-11-06T09:57:42.052Z,965.92
2022-11-06T09:58:42.037Z,965.92
2022-11-06T09:59:42.009Z,965.92
2022-11-06T10:00:42.118Z,965.88
2022-11-06T10:01:42.131Z,965.86
2022-11-06T10:02:42.046Z,965.88
2022-11-06T10:03:42.002Z,965.86
2022-11-06T10:04:41.959Z,965.86
2022-11-06T10:05:41.942Z,965.83
2022-11-06T10:06:41.961Z,965.79
2022-11-06T10:07:41.954Z,965.82
2022-11-06T10:08:41.947Z,965.81
2022-11-06T10:09:41.899Z,965.87
2022-11-06T10:10:41.910Z,965.80
2022-11-06T10:11:41.876Z,965.85
2022-11-06T10:12:41.992Z,965.76
2022-11-06T10:13:41.876Z,965.76
2022-11-06T10:14:41.883Z,965.72
2022-11-06T10:15:41.837Z,965.72
2022-11-06T10:16:41.818Z,965.67
2022-11-06T10:17:41.821Z,965.69
2022-11-06T10:18:41.808Z,965.60
2022-11-06T10:19:41.802Z,965.63
2022-11-06T10:20:41.828Z,965.51
2022-11-06T10:21:41.764Z,965.49
2022-11-06T10:22:41.756Z,965.57
2022-11-06T10:23:41.756Z,965.57
2022-11-06T10:24:41.760Z,965.52
2022-11-06T10:25:41.741Z,965.54
2022-11-06T10:26:41.710Z,965.57
2022-11-06T10:27:41.701Z,965.50
2022-11-06T10:28:41.704Z,965.46
2022-11-06T10:29:41.729Z,965.47
2022-11-06T10:30:41.694Z,965.42
2022-11-06T10:31:41.669Z,965.42
2022-11-06T10:32:41.640Z,965.44
2022-11-06T10:33:41.640Z,965.41
2022-11-06T10:34:41.658Z,965.42
2022-11-06T10:35:41.639Z,965.39
2022-11-06T10:36:45.002Z,965.43
2022-11-06T10:37:42.586Z,965.37
2022-11-06T10:38:41.577Z,965.42
2022-11-06T10:39:41.569Z,965.35
2022-11-06T10:40:41.598Z,965.34
2022-11-06T10:41:41.548Z,965.34
2022-11-06T10:42:41.546Z,965.35
2022-11-06T10:43:41.520Z,965.32
2022-11-06T10:44:41.618Z,965.29
2022-11-06T10:45:41.534Z,965.20
2022-11-06T10:46:41.500Z,965.24
2022-11-06T10:47:41.515Z,965.11
2022-11-06T10:48:41.866Z,965.11
2022-11-06T10:49:41.460Z,965.06
2022-11-06T10:50:41.440Z,965.14
2022-11-06T10:51:41.438Z,965.04
2022-11-06T10:52:41.419Z,965.03
2022-11-06T10:53:41.568Z,965.00
2022-11-06T10:54:41.396Z,964.98
2022-11-06T10:55:41.385Z,964.94
2022-11-06T10:56:41.371Z,964.94
2022-11-06T10:57:41.377Z,964.85
2022-11-06T10:58:41.359Z,964.84
2022-11-06T10:59:41.367Z,964.84
2022-11-06T11:00:41.382Z,964.77
2022-11-06T11:01:41.467Z,964.71
2022-11-06T11:02:41.452Z,964.76
2022-11-06T11:03:41.313Z,964.76
2022-11-06T11:04:41.298Z,964.70
2022-11-06T11:05:41.311Z,964.66
2022-11-06T11:06:41.267Z,964.61
2022-11-06T11:07:41.256Z,964.60
2022-11-06T11:08:41.248Z,964.61
2022-11-06T11:09:41.231Z,964.55
2022-11-06T11:10:41.237Z,964.53
2022-11-06T11:11:41.229Z,964.45
2022-11-06T11:12:41.192Z,964.45
2022-11-06T11:13:41.182Z,964.40
2022-11-06T11:14:41.190Z,964.41
2022-11-06T11:15:41.218Z,964.32
2022-11-06T11:16:41.219Z,964.36
2022-11-06T11:17:41.142Z,964.27
2022-11-06T11:18:41.137Z,964.28
2022-11-06T11:19:41.117Z,964.27
2022-11-06T11:20:41.122Z,964.26
2022-11-06T11:21:41.131Z,964.21
2022-11-06T11:22:41.172Z,964.23
2022-11-06T11:23:41.070Z,964.20
2022-11-06T11:24:41.068Z,964.18
2022-11-06T11:25:41.084Z,964.16
2022-11-06T11:26:41.040Z,964.14
2022-11-06T11:27:41.045Z,964.17
2022-11-06T11:28:41.039Z,964.16
2022-11-06T11:29:41.003Z,964.16
2022-11-06T11:30:40.999Z,964.08
2022-11-06T11:31:41.003Z,964.13
2022-11-06T11:32:41.017Z,964.15
2022-11-06T11:33:40.990Z,964.09
2022-11-06T11:34:46.372Z,964.07
2022-11-06T11:35:41.945Z,964.07
2022-11-06T11:36:40.932Z,964.04
2022-11-06T11:37:40.943Z,963.99
2022-11-06T11:38:40.915Z,963.96
2022-11-06T11:39:40.913Z,964.04
2022-11-06T11:40:40.895Z,964.00
2022-11-06T11:41:40.871Z,963.98
2022-11-06T11:42:40.886Z,963.86
2022-11-06T11:43:40.878Z,963.90
2022-11-06T11:44:40.904Z,963.91
2022-11-06T11:45:40.823Z,963.85
2022-11-06T11:46:40.814Z,963.85
2022-11-06T11:47:40.827Z,963.81
2022-11-06T11:48:40.823Z,963.79
2022-11-06T11:49:40.788Z,963.75
2022-11-06T11:50:40.784Z,963.75
2022-11-06T11:51:40.758Z,963.76
2022-11-06T11:52:42.748Z,963.72
2022-11-06T11:53:40.765Z,963.72
2022-11-06T11:54:40.750Z,963.71
2022-11-06T11:55:40.726Z,963.67
2022-11-06T11:57:03.582Z,963.68
2022-11-06T11:57:41.689Z,963.62
2022-11-06T11:58:40.680Z,963.64
2022-11-06T11:59:40.707Z,963.59
2022-11-06T12:00:40.667Z,963.49
2022-11-06T12:01:40.757Z,963.53
2022-11-06T12:02:40.976Z,963.50
2022-11-06T12:03:40.626Z,963.50
2022-11-06T12:04:40.658Z,963.45
2022-11-06T12:05:40.632Z,963.48
2022-11-06T12:06:40.599Z,963.43
2022-11-06T12:07:45.031Z,963.46
2022-11-06T12:08:41.575Z,963.47
2022-11-06T12:09:40.555Z,963.46
2022-11-06T12:10:40.612Z,963.36
2022-11-06T12:11:40.562Z,963.37
2022-11-06T12:12:40.540Z,963.36
2022-11-06T12:13:40.545Z,963.38
2022-11-06T12:14:40.502Z,963.39
2022-11-06T12:15:40.488Z,963.37
2022-11-06T12:16:40.512Z,963.36
2022-11-06T12:17:40.469Z,963.40
2022-11-06T12:18:40.470Z,963.42
2022-11-06T12:19:40.469Z,963.42
2022-11-06T12:20:40.451Z,963.42
2022-11-06T12:21:40.420Z,963.46
2022-11-06T12:22:40.434Z,963.45
2022-11-06T12:23:40.444Z,963.45
2022-11-06T12:24:40.416Z,963.48
2022-11-06T12:25:40.376Z,963.48
2022-11-06T12:26:40.382Z,963.45
2022-11-06T12:27:40.354Z,963.44
2022-11-06T12:28:40.346Z,963.35
2022-11-06T12:29:40.359Z,963.33
2022-11-06T12:30:40.345Z,963.37